Terminal Aerodrome Forecast
Issued by NWS

Home | Current Version | Previous Version | Text Only | Print | Product List | Glossary On
Versions: 1 2 3 4 5 6 7 8 9 10 11 12 13 14 15
000
FTUS45 KTFX 312328
TAFGTF
TAF
KGTF 312328Z 0100/0124 21006KT P6SM SCT080 SCT200
     FM011900 27010G20KT P6SM BKN180=

USA.gov is the U.S. government's official web portal to all federal, state and local government web resources and services.